createdAt,value
2023-04-18T00:00:52.583Z,20.38
2023-04-18T00:05:55.941Z,17.27
2023-04-18T00:10:59.472Z,21.60
2023-04-18T00:16:04.296Z,21.23
2023-04-18T00:21:08.779Z,19.48
2023-04-18T00:26:12.324Z,20.77
2023-04-18T00:31:17.293Z,19.63
2023-04-18T00:36:20.680Z,19.20
2023-04-18T00:41:27.517Z,24.02
2023-04-18T00:46:32.405Z,17.33
2023-04-18T00:51:36.192Z,21.80
2023-04-18T00:56:39.930Z,23.92
2023-04-18T01:01:45.353Z,24.63
2023-04-18T01:06:48.936Z,26.00
2023-04-18T01:11:52.203Z,21.80
2023-04-18T01:16:57.630Z,21.88
2023-04-18T01:22:00.888Z,27.30
2023-04-18T01:27:06.010Z,25.63
2023-04-18T01:32:09.644Z,23.20
2023-04-18T01:37:12.958Z,27.02
2023-04-18T01:42:17.582Z,20.10
2023-04-18T01:47:20.794Z,19.85
2023-04-18T01:52:24.039Z,20.40
2023-04-18T01:57:29.068Z,21.25
2023-04-18T02:02:32.538Z,20.65
2023-04-18T02:07:36.052Z,18.42
2023-04-18T02:12:40.669Z,23.25
2023-04-18T02:17:43.916Z,21.75
2023-04-18T02:22:47.953Z,24.27
2023-04-18T02:27:52.857Z,22.58
2023-04-18T02:32:58.241Z,24.85
2023-04-18T02:38:01.762Z,26.23
2023-04-18T02:43:06.645Z,22.85
2023-04-18T02:48:10.105Z,22.38
2023-04-18T02:53:13.368Z,28.08
2023-04-18T02:58:18.310Z,25.75
2023-04-18T03:03:21.811Z,23.02
2023-04-18T03:08:25.241Z,23.42
2023-04-18T03:13:29.806Z,19.42
2023-04-18T03:18:33.082Z,25.05
2023-04-18T03:23:36.481Z,26.58
2023-04-18T03:28:41.333Z,25.00
2023-04-18T03:33:45.803Z,27.38
2023-04-18T03:38:49.314Z,22.25
2023-04-18T03:43:54.094Z,26.23
2023-04-18T03:48:57.427Z,31.40
2023-04-18T03:54:00.646Z,22.52
2023-04-18T03:59:05.294Z,24.98
2023-04-18T04:04:09.427Z,27.05
2023-04-18T04:09:12.892Z,27.48
2023-04-18T04:14:17.630Z,26.05
2023-04-18T04:19:21.205Z,25.42
2023-04-18T04:24:24.601Z,26.13
2023-04-18T04:29:29.571Z,22.25
2023-04-18T04:34:34.525Z,26.75
2023-04-18T04:39:37.905Z,29.00
2023-04-18T04:44:43.102Z,25.63
2023-04-18T04:49:46.440Z,26.42
2023-04-18T04:54:49.963Z,31.60
2023-04-18T04:59:54.740Z,28.95
2023-04-18T05:04:58.039Z,33.75
2023-04-18T05:10:01.216Z,34.00
2023-04-18T05:15:07.210Z,42.33
2023-04-18T05:20:11.603Z,28.48
2023-04-18T05:25:15.110Z,27.17
2023-04-18T05:30:19.762Z,33.25
2023-04-18T05:35:23.063Z,33.85
2023-04-18T05:40:27.584Z,30.30
2023-04-18T05:45:32.745Z,29.40
2023-04-18T05:50:36.148Z,30.98
2023-04-18T05:55:41.133Z,30.90
2023-04-18T06:00:45.945Z,24.58
2023-04-18T06:05:49.349Z,23.08
2023-04-18T06:10:52.653Z,26.67
2023-04-18T06:15:57.402Z,20.02
2023-04-18T06:21:00.896Z,27.95
2023-04-18T06:26:04.256Z,27.48
2023-04-18T06:31:09.490Z,23.60
2023-04-18T06:36:12.950Z,20.75
2023-04-18T06:41:16.782Z,16.10
2023-04-18T06:46:22.116Z,22.20
2023-04-18T06:51:25.531Z,21.98
2023-04-18T06:56:29.746Z,15.20
2023-04-18T07:01:34.681Z,12.77
2023-04-18T07:06:38.664Z,13.93
2023-04-18T07:11:42.172Z,13.88
2023-04-18T07:16:47.078Z,12.30
2023-04-18T07:21:50.318Z,14.55
2023-04-18T07:26:55.167Z,14.85
2023-04-18T07:32:00.167Z,10.90
2023-04-18T07:37:03.804Z,13.45
2023-04-18T07:42:07.909Z,14.02
2023-04-18T07:47:14.042Z,18.67
2023-04-18T07:52:17.762Z,13.43
2023-04-18T07:57:21.073Z,12.65
2023-04-18T08:02:25.968Z,11.88
2023-04-18T08:07:29.381Z,16.00
2023-04-18T08:12:32.856Z,12.85
2023-04-18T08:17:39.021Z,16.38
2023-04-18T08:23:01.376Z,11.20
2023-04-18T08:28:06.054Z,12.35
2023-04-18T08:33:11.104Z,9.73
2023-04-18T08:38:14.930Z,14.55
2023-04-18T08:43:18.252Z,12.07
2023-04-18T08:48:23.201Z,11.77
2023-04-18T08:53:26.705Z,10.55
2023-04-18T08:58:32.478Z,10.63
2023-04-18T09:03:40.193Z,12.68
2023-04-18T09:08:44.779Z,10.95
2023-04-18T09:13:48.770Z,12.57
2023-04-18T09:19:14.159Z,10.43
2023-04-18T09:24:21.239Z,9.32
2023-04-18T09:29:42.503Z,7.97
2023-04-18T09:34:48.062Z,9.23
2023-04-18T09:39:51.981Z,10.57
2023-04-18T09:45:05.673Z,10.88
2023-04-18T09:50:12.294Z,10.75
2023-04-18T09:55:17.789Z,12.57
2023-04-18T10:00:26.625Z,12.65
2023-04-18T10:05:34.873Z,12.10
2023-04-18T10:10:39.085Z,11.43
2023-04-18T10:15:44.180Z,12.10
2023-04-18T10:20:49.032Z,10.82
2023-04-18T10:25:52.501Z,11.90
2023-04-18T10:30:57.839Z,12.13
2023-04-18T10:36:06.477Z,14.82
2023-04-18T10:41:31.509Z,11.95
2023-04-18T10:46:35.016Z,25.85
2023-04-18T10:51:39.729Z,16.30
2023-04-18T10:56:56.756Z,16.95
2023-04-18T11:02:06.384Z,23.35
2023-04-18T11:07:11.322Z,14.95
2023-04-18T11:12:14.784Z,10.55
2023-04-18T11:17:19.511Z,14.70
2023-04-18T11:22:24.508Z,25.10
2023-04-18T11:27:28.053Z,20.65
2023-04-18T11:32:31.567Z,13.50
2023-04-18T11:37:36.892Z,14.18
2023-04-18T11:42:42.296Z,17.33
2023-04-18T11:47:47.549Z,15.50
2023-04-18T11:52:54.216Z,22.35
2023-04-18T11:57:58.872Z,17.55
2023-04-18T12:03:04.926Z,21.08
2023-04-18T12:08:11.522Z,18.50
2023-04-18T12:13:15.332Z,20.77
2023-04-18T12:18:20.696Z,18.10
2023-04-18T12:23:35.705Z,16.98
2023-04-18T12:28:39.030Z,15.15
2023-04-18T12:33:42.326Z,14.10
2023-04-18T12:38:49.235Z,14.85
2023-04-18T12:43:52.525Z,13.27
2023-04-18T12:48:57.267Z,16.60
2023-04-18T12:54:02.306Z,13.85
2023-04-18T12:59:05.874Z,17.73
2023-04-18T13:04:12.877Z,12.60
2023-04-18T13:09:18.125Z,20.60
2023-04-18T13:14:21.537Z,11.43
2023-04-18T13:19:24.913Z,18.70
2023-04-18T13:24:29.785Z,23.15
2023-04-18T13:29:33.209Z,11.93
2023-04-18T13:34:41.709Z,12.90
2023-04-18T13:39:46.437Z,14.30
2023-04-18T13:44:50.238Z,29.05
2023-04-18T13:49:53.539Z,11.57
2023-04-18T13:54:58.357Z,23.55
2023-04-18T14:00:01.932Z,31.15
2023-04-18T14:05:08.430Z,19.98
2023-04-18T14:10:13.501Z,24.83
2023-04-18T14:15:16.988Z,14.32
2023-04-18T14:20:20.235Z,16.85
2023-04-18T14:25:24.964Z,13.73
2023-04-18T14:30:28.132Z,15.95
2023-04-18T14:35:32.217Z,15.13
2023-04-18T14:40:37.034Z,16.15
2023-04-18T14:45:40.362Z,14.73
2023-04-18T14:50:43.940Z,19.27
2023-04-18T14:55:48.644Z,27.88
2023-04-18T15:00:52.257Z,15.23
2023-04-18T15:05:55.817Z,17.80
2023-04-18T15:11:01.251Z,17.40
2023-04-18T15:16:04.920Z,15.38
2023-04-18T15:21:08.146Z,19.70
2023-04-18T15:26:12.823Z,15.35
2023-04-18T15:31:16.581Z,16.13
2023-04-18T15:36:20.188Z,17.80
2023-04-18T15:41:24.960Z,13.57
2023-04-18T15:46:28.411Z,16.38
2023-04-18T15:51:31.676Z,17.70
2023-04-18T15:56:37.393Z,19.42
2023-04-18T16:01:40.819Z,17.83
2023-04-18T16:06:44.704Z,17.52
2023-04-18T16:11:49.397Z,12.48
2023-04-18T16:16:53.836Z,19.88
2023-04-18T16:21:57.351Z,15.52
2023-04-18T16:27:02.884Z,13.30
2023-04-18T16:32:08.206Z,15.40
2023-04-18T16:37:11.488Z,39.85
2023-04-18T16:42:16.101Z,54.80
2023-04-18T16:47:20.047Z,15.93
2023-04-18T16:52:23.779Z,16.50
2023-04-18T16:57:28.521Z,19.25
2023-04-18T17:02:32.192Z,23.67
2023-04-18T17:07:35.733Z,18.83
2023-04-18T17:12:40.543Z,24.70
2023-04-18T17:17:43.931Z,15.63
2023-04-18T17:22:47.249Z,20.30
2023-04-18T17:27:51.948Z,14.10
2023-04-18T17:32:55.767Z,15.13
2023-04-18T17:37:59.206Z,21.05
2023-04-18T17:43:04.093Z,20.25
2023-04-18T17:48:09.057Z,39.63
2023-04-18T17:53:13.051Z,24.23
2023-04-18T17:58:17.861Z,33.45
2023-04-18T18:03:21.891Z,23.55
2023-04-18T18:08:25.830Z,27.73
2023-04-18T18:13:30.941Z,25.30
2023-04-18T18:18:34.378Z,21.42
2023-04-18T18:23:38.014Z,27.98
2023-04-18T18:28:42.936Z,20.05
2023-04-18T18:33:46.528Z,21.35
2023-04-18T18:38:49.876Z,19.98
2023-04-18T18:43:54.732Z,22.50
2023-04-18T18:48:58.106Z,28.13
2023-04-18T18:54:01.509Z,25.38
2023-04-18T18:59:06.226Z,26.90
2023-04-18T19:04:09.792Z,19.50
2023-04-18T19:09:13.812Z,23.65
2023-04-18T19:14:18.859Z,23.17
2023-04-18T19:19:22.166Z,17.45
2023-04-18T19:24:25.504Z,17.40
2023-04-18T19:29:32.574Z,22.92
2023-04-18T19:34:36.398Z,19.25
2023-04-18T19:39:39.670Z,22.70
2023-04-18T19:44:44.432Z,21.52
2023-04-18T19:49:47.709Z,16.20
2023-04-18T19:54:51.077Z,19.05
2023-04-18T19:59:55.978Z,16.90
2023-04-18T20:04:59.441Z,17.45
2023-04-18T20:10:04.393Z,21.38
2023-04-18T20:15:10.820Z,15.68
2023-04-18T20:20:14.640Z,15.55
2023-04-18T20:25:18.159Z,16.33
2023-04-18T20:30:24.606Z,13.23
2023-04-18T20:35:29.855Z,15.88
2023-04-18T20:40:33.468Z,20.60
2023-04-18T20:45:38.398Z,16.65
2023-04-18T20:50:44.031Z,14.40
2023-04-18T20:55:47.519Z,13.55
2023-04-18T21:00:52.295Z,16.10
2023-04-18T21:05:55.579Z,20.63
2023-04-18T21:10:58.768Z,17.75
2023-04-18T21:16:05.329Z,15.43
2023-04-18T21:21:09.044Z,15.18
2023-04-18T21:26:13.772Z,13.02
2023-04-18T21:31:19.979Z,15.23
2023-04-18T21:36:24.424Z,15.00
2023-04-18T21:41:28.054Z,14.13
2023-04-18T21:46:32.718Z,13.85
2023-04-18T21:51:36.067Z,13.45
2023-04-18T21:56:39.546Z,14.82
2023-04-18T22:01:44.692Z,14.95
2023-04-18T22:06:48.002Z,15.38
2023-04-18T22:11:51.992Z,15.45
2023-04-18T22:16:58.943Z,13.57
2023-04-18T22:22:02.351Z,15.32
2023-04-18T22:27:05.952Z,12.77
2023-04-18T22:32:10.656Z,13.38
2023-04-18T22:37:13.879Z,15.20
2023-04-18T22:42:17.146Z,14.35
2023-04-18T22:47:22.496Z,13.10
2023-04-18T22:52:26.151Z,17.23
2023-04-18T22:57:29.580Z,15.20
2023-04-18T23:02:34.480Z,13.73
2023-04-18T23:07:37.930Z,22.52
2023-04-18T23:12:41.126Z,16.52
2023-04-18T23:17:45.842Z,12.45
2023-04-18T23:22:51.704Z,12.77
2023-04-18T23:27:55.182Z,18.23
2023-04-18T23:32:59.803Z,15.10
2023-04-18T23:38:03.151Z,15.25
2023-04-18T23:43:06.374Z,14.98
2023-04-18T23:48:11.559Z,14.80
2023-04-18T23:53:14.897Z,17.67
2023-04-18T23:58:18.365Z,13.85
